sensor_id;sensor_type;location;lat;lon;timestamp;temperature;humidity
2783;DHT22;1399;47.072;15.452;2023-07-22T00:01:01;19.80;91.80
2783;DHT22;1399;47.072;15.452;2023-07-22T00:03:26;19.80;91.70
2783;DHT22;1399;47.072;15.452;2023-07-22T00:06:08;19.70;91.60
2783;DHT22;1399;47.072;15.452;2023-07-22T00:08:35;19.70;91.60
2783;DHT22;1399;47.072;15.452;2023-07-22T00:11:03;19.70;91.50
2783;DHT22;1399;47.072;15.452;2023-07-22T00:13:29;19.70;91.50
2783;DHT22;1399;47.072;15.452;2023-07-22T00:15:55;19.70;91.50
2783;DHT22;1399;47.072;15.452;2023-07-22T00:18:21;19.70;91.50
2783;DHT22;1399;47.072;15.452;2023-07-22T00:20:47;19.70;91.50
2783;DHT22;1399;47.072;15.452;2023-07-22T00:23:13;19.60;91.40
2783;DHT22;1399;47.072;15.452;2023-07-22T00:25:41;19.60;91.30
2783;DHT22;1399;47.072;15.452;2023-07-22T00:28:07;19.60;91.30
2783;DHT22;1399;47.072;15.452;2023-07-22T00:30:33;19.60;91.30
2783;DHT22;1399;47.072;15.452;2023-07-22T00:33:00;19.60;91.30
2783;DHT22;1399;47.072;15.452;2023-07-22T00:35:26;19.60;91.30
2783;DHT22;1399;47.072;15.452;2023-07-22T00:37:52;19.60;91.30
2783;DHT22;1399;47.072;15.452;2023-07-22T00:40:18;19.50;91.20
2783;DHT22;1399;47.072;15.452;2023-07-22T00:42:44;19.50;91.20
2783;DHT22;1399;47.072;15.452;2023-07-22T00:45:12;19.50;91.20
2783;DHT22;1399;47.072;15.452;2023-07-22T00:47:38;19.50;91.20
2783;DHT22;1399;47.072;15.452;2023-07-22T00:50:06;19.50;91.20
2783;DHT22;1399;47.072;15.452;2023-07-22T00:52:36;19.50;91.20
2783;DHT22;1399;47.072;15.452;2023-07-22T00:55:04;19.50;91.20
2783;DHT22;1399;47.072;15.452;2023-07-22T00:57:30;19.40;91.10
2783;DHT22;1399;47.072;15.452;2023-07-22T00:59:56;19.40;91.10
2783;DHT22;1399;47.072;15.452;2023-07-22T01:02:22;19.40;91.00
2783;DHT22;1399;47.072;15.452;2023-07-22T01:04:49;19.40;91.00
2783;DHT22;1399;47.072;15.452;2023-07-22T01:07:16;19.40;91.00
2783;DHT22;1399;47.072;15.452;2023-07-22T01:09:43;19.40;91.00
2783;DHT22;1399;47.072;15.452;2023-07-22T01:12:09;19.40;90.90
2783;DHT22;1399;47.072;15.452;2023-07-22T01:14:37;19.40;90.90
2783;DHT22;1399;47.072;15.452;2023-07-22T01:17:08;19.30;90.90
2783;DHT22;1399;47.072;15.452;2023-07-22T01:19:35;19.30;90.80
2783;DHT22;1399;47.072;15.452;2023-07-22T01:22:06;19.30;90.90
2783;DHT22;1399;47.072;15.452;2023-07-22T01:24:34;19.30;90.80
2783;DHT22;1399;47.072;15.452;2023-07-22T01:27:00;19.30;90.80
2783;DHT22;1399;47.072;15.452;2023-07-22T01:29:26;19.30;90.90
2783;DHT22;1399;47.072;15.452;2023-07-22T01:31:53;19.30;90.90
2783;DHT22;1399;47.072;15.452;2023-07-22T01:34:20;19.30;90.90
2783;DHT22;1399;47.072;15.452;2023-07-22T01:36:47;19.30;90.90
2783;DHT22;1399;47.072;15.452;2023-07-22T01:39:13;19.30;90.90
2783;DHT22;1399;47.072;15.452;2023-07-22T01:41:40;19.30;90.80
2783;DHT22;1399;47.072;15.452;2023-07-22T01:44:06;19.20;90.80
2783;DHT22;1399;47.072;15.452;2023-07-22T01:46:32;19.20;90.70
2783;DHT22;1399;47.072;15.452;2023-07-22T01:48:57;19.20;90.70
2783;DHT22;1399;47.072;15.452;2023-07-22T01:51:23;19.20;90.70
2783;DHT22;1399;47.072;15.452;2023-07-22T01:53:50;19.20;90.70
2783;DHT22;1399;47.072;15.452;2023-07-22T01:56:16;19.20;90.70
2783;DHT22;1399;47.072;15.452;2023-07-22T01:58:42;19.20;90.70
2783;DHT22;1399;47.072;15.452;2023-07-22T02:01:08;19.20;90.70
2783;DHT22;1399;47.072;15.452;2023-07-22T02:03:34;19.10;90.60
2783;DHT22;1399;47.072;15.452;2023-07-22T02:06:06;19.10;90.60
2783;DHT22;1399;47.072;15.452;2023-07-22T02:08:32;19.10;90.60
2783;DHT22;1399;47.072;15.452;2023-07-22T02:11:06;19.10;90.60
2783;DHT22;1399;47.072;15.452;2023-07-22T02:13:35;19.10;90.60
2783;DHT22;1399;47.072;15.452;2023-07-22T02:16:01;19.10;90.60
2783;DHT22;1399;47.072;15.452;2023-07-22T02:18:28;19.10;90.60
2783;DHT22;1399;47.072;15.452;2023-07-22T02:20:54;19.10;90.60
2783;DHT22;1399;47.072;15.452;2023-07-22T02:23:21;19.10;90.50
2783;DHT22;1399;47.072;15.452;2023-07-22T02:25:54;19.10;90.50
2783;DHT22;1399;47.072;15.452;2023-07-22T02:28:21;19.10;90.50
2783;DHT22;1399;47.072;15.452;2023-07-22T02:30:51;19.10;90.50
2783;DHT22;1399;47.072;15.452;2023-07-22T02:33:18;19.10;90.50
2783;DHT22;1399;47.072;15.452;2023-07-22T02:35:45;19.10;90.50
2783;DHT22;1399;47.072;15.452;2023-07-22T02:38:11;19.10;90.50
2783;DHT22;1399;47.072;15.452;2023-07-22T02:40:37;19.10;90.50
2783;DHT22;1399;47.072;15.452;2023-07-22T02:43:03;19.10;90.40
2783;DHT22;1399;47.072;15.452;2023-07-22T02:45:30;19.10;90.40
2783;DHT22;1399;47.072;15.452;2023-07-22T02:47:56;19.10;90.40
2783;DHT22;1399;47.072;15.452;2023-07-22T02:50:22;19.10;90.40
2783;DHT22;1399;47.072;15.452;2023-07-22T02:52:48;19.10;90.40
2783;DHT22;1399;47.072;15.452;2023-07-22T02:55:15;19.00;90.30
2783;DHT22;1399;47.072;15.452;2023-07-22T02:57:45;19.10;90.20
2783;DHT22;1399;47.072;15.452;2023-07-22T03:00:12;19.00;90.20
2783;DHT22;1399;47.072;15.452;2023-07-22T03:02:41;19.00;90.10
2783;DHT22;1399;47.072;15.452;2023-07-22T03:05:08;19.00;90.10
2783;DHT22;1399;47.072;15.452;2023-07-22T03:07:38;19.00;90.10
2783;DHT22;1399;47.072;15.452;2023-07-22T03:10:05;19.00;90.10
2783;DHT22;1399;47.072;15.452;2023-07-22T03:12:32;19.00;90.10
2783;DHT22;1399;47.072;15.452;2023-07-22T03:14:58;18.90;90.00
2783;DHT22;1399;47.072;15.452;2023-07-22T03:17:24;18.90;90.00
2783;DHT22;1399;47.072;15.452;2023-07-22T03:19:50;18.90;90.00
2783;DHT22;1399;47.072;15.452;2023-07-22T03:22:17;18.90;90.00
2783;DHT22;1399;47.072;15.452;2023-07-22T03:24:43;18.90;90.00
2783;DHT22;1399;47.072;15.452;2023-07-22T03:27:10;18.90;90.00
2783;DHT22;1399;47.072;15.452;2023-07-22T03:29:36;18.90;90.00
2783;DHT22;1399;47.072;15.452;2023-07-22T03:32:04;18.90;89.90
2783;DHT22;1399;47.072;15.452;2023-07-22T03:34:31;18.90;89.90
2783;DHT22;1399;47.072;15.452;2023-07-22T03:36:57;18.90;89.90
2783;DHT22;1399;47.072;15.452;2023-07-22T03:39:24;19.00;89.90
2783;DHT22;1399;47.072;15.452;2023-07-22T03:41:50;18.90;89.70
2783;DHT22;1399;47.072;15.452;2023-07-22T03:44:16;18.90;89.70
2783;DHT22;1399;47.072;15.452;2023-07-22T03:46:42;18.90;89.70
2783;DHT22;1399;47.072;15.452;2023-07-22T03:49:08;18.90;89.70
2783;DHT22;1399;47.072;15.452;2023-07-22T03:51:34;18.90;89.60
2783;DHT22;1399;47.072;15.452;2023-07-22T03:54:00;18.90;89.60
2783;DHT22;1399;47.072;15.452;2023-07-22T03:56:25;18.90;89.40
2783;DHT22;1399;47.072;15.452;2023-07-22T03:58:52;18.90;89.40
2783;DHT22;1399;47.072;15.452;2023-07-22T04:01:18;18.90;89.40
2783;DHT22;1399;47.072;15.452;2023-07-22T04:03:44;18.90;89.40
2783;DHT22;1399;47.072;15.452;2023-07-22T04:06:10;18.90;89.30
2783;DHT22;1399;47.072;15.452;2023-07-22T04:08:36;18.90;89.30
2783;DHT22;1399;47.072;15.452;2023-07-22T04:11:02;18.90;89.20
2783;DHT22;1399;47.072;15.452;2023-07-22T04:13:28;18.90;89.20
2783;DHT22;1399;47.072;15.452;2023-07-22T04:15:54;18.90;89.20
2783;DHT22;1399;47.072;15.452;2023-07-22T04:18:21;18.90;89.20
2783;DHT22;1399;47.072;15.452;2023-07-22T04:20:47;18.90;89.30
2783;DHT22;1399;47.072;15.452;2023-07-22T04:23:16;18.90;89.10
2783;DHT22;1399;47.072;15.452;2023-07-22T04:25:45;18.90;89.10
2783;DHT22;1399;47.072;15.452;2023-07-22T04:28:11;18.90;89.10
2783;DHT22;1399;47.072;15.452;2023-07-22T04:30:37;18.90;89.10
2783;DHT22;1399;47.072;15.452;2023-07-22T04:33:04;18.90;89.10
2783;DHT22;1399;47.072;15.452;2023-07-22T04:35:32;19.00;89.10
2783;DHT22;1399;47.072;15.452;2023-07-22T04:37:58;19.00;89.10
2783;DHT22;1399;47.072;15.452;2023-07-22T04:40:24;19.00;89.00
2783;DHT22;1399;47.072;15.452;2023-07-22T04:42:50;19.00;88.90
2783;DHT22;1399;47.072;15.452;2023-07-22T04:45:17;19.00;88.90
2783;DHT22;1399;47.072;15.452;2023-07-22T04:47:43;19.10;88.80
2783;DHT22;1399;47.072;15.452;2023-07-22T04:50:13;19.10;88.70
2783;DHT22;1399;47.072;15.452;2023-07-22T04:52:39;19.20;88.60
2783;DHT22;1399;47.072;15.452;2023-07-22T04:55:05;19.10;88.40
2783;DHT22;1399;47.072;15.452;2023-07-22T04:57:41;19.20;88.30
2783;DHT22;1399;47.072;15.452;2023-07-22T05:00:13;19.30;88.20
2783;DHT22;1399;47.072;15.452;2023-07-22T05:02:46;19.30;88.10
2783;DHT22;1399;47.072;15.452;2023-07-22T05:05:15;19.30;87.80
2783;DHT22;1399;47.072;15.452;2023-07-22T05:07:41;19.40;87.80
2783;DHT22;1399;47.072;15.452;2023-07-22T05:10:08;19.40;87.40
2783;DHT22;1399;47.072;15.452;2023-07-22T05:12:39;19.50;87.30
2783;DHT22;1399;47.072;15.452;2023-07-22T05:15:06;19.60;87.20
2783;DHT22;1399;47.072;15.452;2023-07-22T05:17:32;19.60;86.90
2783;DHT22;1399;47.072;15.452;2023-07-22T05:19:58;19.60;86.80
2783;DHT22;1399;47.072;15.452;2023-07-22T05:22:24;19.60;86.70
2783;DHT22;1399;47.072;15.452;2023-07-22T05:24:50;19.70;86.70
2783;DHT22;1399;47.072;15.452;2023-07-22T05:27:17;19.70;86.60
2783;DHT22;1399;47.072;15.452;2023-07-22T05:29:43;19.70;86.30
2783;DHT22;1399;47.072;15.452;2023-07-22T05:32:09;19.70;86.20
2783;DHT22;1399;47.072;15.452;2023-07-22T05:34:35;19.70;86.10
2783;DHT22;1399;47.072;15.452;2023-07-22T05:37:01;19.70;86.00
2783;DHT22;1399;47.072;15.452;2023-07-22T05:39:26;19.80;86.00
2783;DHT22;1399;47.072;15.452;2023-07-22T05:41:53;19.80;85.90
2783;DHT22;1399;47.072;15.452;2023-07-22T05:44:18;19.80;85.80
2783;DHT22;1399;47.072;15.452;2023-07-22T05:46:44;19.90;85.70
2783;DHT22;1399;47.072;15.452;2023-07-22T05:49:10;19.90;85.50
2783;DHT22;1399;47.072;15.452;2023-07-22T05:51:36;19.90;85.30
2783;DHT22;1399;47.072;15.452;2023-07-22T05:54:03;19.90;85.10
2783;DHT22;1399;47.072;15.452;2023-07-22T05:56:28;19.90;85.80
2783;DHT22;1399;47.072;15.452;2023-07-22T05:58:54;19.90;84.80
2783;DHT22;1399;47.072;15.452;2023-07-22T06:01:20;20.00;85.80
2783;DHT22;1399;47.072;15.452;2023-07-22T06:03:46;20.00;84.80
2783;DHT22;1399;47.072;15.452;2023-07-22T06:06:11;20.00;84.70
2783;DHT22;1399;47.072;15.452;2023-07-22T06:08:37;20.10;84.60
2783;DHT22;1399;47.072;15.452;2023-07-22T06:11:03;20.10;84.40
2783;DHT22;1399;47.072;15.452;2023-07-22T06:13:29;20.10;84.20
2783;DHT22;1399;47.072;15.452;2023-07-22T06:15:55;20.10;84.10
2783;DHT22;1399;47.072;15.452;2023-07-22T06:18:20;20.20;84.10
2783;DHT22;1399;47.072;15.452;2023-07-22T06:20:46;20.20;84.00
2783;DHT22;1399;47.072;15.452;2023-07-22T06:23:12;20.20;83.90
2783;DHT22;1399;47.072;15.452;2023-07-22T06:25:38;20.20;83.80
2783;DHT22;1399;47.072;15.452;2023-07-22T06:28:04;20.20;83.80
2783;DHT22;1399;47.072;15.452;2023-07-22T06:30:30;20.30;83.70
2783;DHT22;1399;47.072;15.452;2023-07-22T06:32:56;20.30;83.70
2783;DHT22;1399;47.072;15.452;2023-07-22T06:35:21;20.30;83.60
2783;DHT22;1399;47.072;15.452;2023-07-22T06:37:47;20.30;83.50
2783;DHT22;1399;47.072;15.452;2023-07-22T06:40:13;20.40;83.50
2783;DHT22;1399;47.072;15.452;2023-07-22T06:42:39;20.40;83.40
2783;DHT22;1399;47.072;15.452;2023-07-22T06:45:05;20.40;83.30
2783;DHT22;1399;47.072;15.452;2023-07-22T06:47:31;20.40;83.20
2783;DHT22;1399;47.072;15.452;2023-07-22T06:49:57;20.50;83.20
2783;DHT22;1399;47.072;15.452;2023-07-22T06:52:23;20.50;83.10
2783;DHT22;1399;47.072;15.452;2023-07-22T06:54:49;20.50;83.10
2783;DHT22;1399;47.072;15.452;2023-07-22T06:57:15;20.60;83.10
2783;DHT22;1399;47.072;15.452;2023-07-22T06:59:41;20.60;82.80
2783;DHT22;1399;47.072;15.452;2023-07-22T07:02:07;20.60;82.70
2783;DHT22;1399;47.072;15.452;2023-07-22T07:04:34;20.70;82.60
2783;DHT22;1399;47.072;15.452;2023-07-22T07:06:59;20.80;82.40
2783;DHT22;1399;47.072;15.452;2023-07-22T07:09:25;20.80;82.20
2783;DHT22;1399;47.072;15.452;2023-07-22T07:11:51;20.90;82.00
2783;DHT22;1399;47.072;15.452;2023-07-22T07:14:17;21.00;81.70
2783;DHT22;1399;47.072;15.452;2023-07-22T07:16:44;21.10;81.20
2783;DHT22;1399;47.072;15.452;2023-07-22T07:19:10;21.20;81.00
2783;DHT22;1399;47.072;15.452;2023-07-22T07:21:36;21.20;80.70
2783;DHT22;1399;47.072;15.452;2023-07-22T07:24:02;21.30;80.40
2783;DHT22;1399;47.072;15.452;2023-07-22T07:26:28;21.30;80.20
2783;DHT22;1399;47.072;15.452;2023-07-22T07:28:53;21.40;80.10
2783;DHT22;1399;47.072;15.452;2023-07-22T07:31:19;21.40;80.00
2783;DHT22;1399;47.072;15.452;2023-07-22T07:33:45;21.50;79.80
2783;DHT22;1399;47.072;15.452;2023-07-22T07:36:11;21.60;79.40
2783;DHT22;1399;47.072;15.452;2023-07-22T07:38:37;21.70;79.00
2783;DHT22;1399;47.072;15.452;2023-07-22T07:41:05;21.90;78.40
2783;DHT22;1399;47.072;15.452;2023-07-22T07:43:34;22.10;77.70
2783;DHT22;1399;47.072;15.452;2023-07-22T07:46:22;22.20;77.00
2783;DHT22;1399;47.072;15.452;2023-07-22T07:48:50;22.30;76.60
2783;DHT22;1399;47.072;15.452;2023-07-22T07:51:18;22.50;76.30
2783;DHT22;1399;47.072;15.452;2023-07-22T07:53:45;22.50;76.00
2783;DHT22;1399;47.072;15.452;2023-07-22T07:56:13;22.60;76.00
2783;DHT22;1399;47.072;15.452;2023-07-22T07:58:39;22.60;75.90
2783;DHT22;1399;47.072;15.452;2023-07-22T08:01:05;22.60;76.00
2783;DHT22;1399;47.072;15.452;2023-07-22T08:03:31;22.60;76.00
2783;DHT22;1399;47.072;15.452;2023-07-22T08:05:57;22.60;76.00
2783;DHT22;1399;47.072;15.452;2023-07-22T08:08:23;22.60;75.90
2783;DHT22;1399;47.072;15.452;2023-07-22T08:11:07;22.70;76.00
2783;DHT22;1399;47.072;15.452;2023-07-22T08:13:36;22.70;75.80
2783;DHT22;1399;47.072;15.452;2023-07-22T08:16:07;22.80;75.50
2783;DHT22;1399;47.072;15.452;2023-07-22T08:18:34;22.90;75.30
2783;DHT22;1399;47.072;15.452;2023-07-22T08:21:01;22.90;75.00
2783;DHT22;1399;47.072;15.452;2023-07-22T08:23:28;23.00;74.70
2783;DHT22;1399;47.072;15.452;2023-07-22T08:25:54;23.10;74.60
2783;DHT22;1399;47.072;15.452;2023-07-22T08:28:20;23.10;74.50
2783;DHT22;1399;47.072;15.452;2023-07-22T08:30:48;23.20;74.30
2783;DHT22;1399;47.072;15.452;2023-07-22T08:33:14;23.20;73.90
2783;DHT22;1399;47.072;15.452;2023-07-22T08:35:40;23.30;73.70
2783;DHT22;1399;47.072;15.452;2023-07-22T08:38:06;23.40;73.50
2783;DHT22;1399;47.072;15.452;2023-07-22T08:40:36;23.50;73.30
2783;DHT22;1399;47.072;15.452;2023-07-22T08:43:04;23.60;72.70
2783;DHT22;1399;47.072;15.452;2023-07-22T08:45:32;23.70;72.60
2783;DHT22;1399;47.072;15.452;2023-07-22T08:48:05;23.70;72.30
2783;DHT22;1399;47.072;15.452;2023-07-22T08:50:55;23.70;72.10
2783;DHT22;1399;47.072;15.452;2023-07-22T08:53:24;23.70;72.10
2783;DHT22;1399;47.072;15.452;2023-07-22T08:55:51;23.60;72.20
2783;DHT22;1399;47.072;15.452;2023-07-22T08:58:17;23.60;72.30
2783;DHT22;1399;47.072;15.452;2023-07-22T09:00:43;23.70;72.50
2783;DHT22;1399;47.072;15.452;2023-07-22T09:03:11;23.70;72.40
2783;DHT22;1399;47.072;15.452;2023-07-22T09:05:37;23.80;72.20
2783;DHT22;1399;47.072;15.452;2023-07-22T09:08:06;23.90;72.10
2783;DHT22;1399;47.072;15.452;2023-07-22T09:10:32;23.90;71.70
2783;DHT22;1399;47.072;15.452;2023-07-22T09:12:59;24.00;70.90
2783;DHT22;1399;47.072;15.452;2023-07-22T09:15:26;24.00;70.40
2783;DHT22;1399;47.072;15.452;2023-07-22T09:17:52;24.10;70.40
2783;DHT22;1399;47.072;15.452;2023-07-22T09:20:19;24.20;70.70
2783;DHT22;1399;47.072;15.452;2023-07-22T09:22:46;24.20;70.50
2783;DHT22;1399;47.072;15.452;2023-07-22T09:25:17;24.30;70.20
2783;DHT22;1399;47.072;15.452;2023-07-22T09:27:44;24.40;70.00
2783;DHT22;1399;47.072;15.452;2023-07-22T09:30:46;24.40;69.30
2783;DHT22;1399;47.072;15.452;2023-07-22T09:33:22;24.50;69.50
2783;DHT22;1399;47.072;15.452;2023-07-22T09:35:49;24.50;69.00
2783;DHT22;1399;47.072;15.452;2023-07-22T09:38:25;24.50;68.90
2783;DHT22;1399;47.072;15.452;2023-07-22T09:40:51;24.60;68.50
2783;DHT22;1399;47.072;15.452;2023-07-22T09:43:17;24.60;68.90
2783;DHT22;1399;47.072;15.452;2023-07-22T09:45:47;24.60;69.00
2783;DHT22;1399;47.072;15.452;2023-07-22T09:48:13;24.70;69.10
2783;DHT22;1399;47.072;15.452;2023-07-22T09:50:38;24.70;68.80
2783;DHT22;1399;47.072;15.452;2023-07-22T09:53:06;24.70;68.60
2783;DHT22;1399;47.072;15.452;2023-07-22T09:55:33;24.70;68.60
2783;DHT22;1399;47.072;15.452;2023-07-22T09:58:03;24.70;68.50
2783;DHT22;1399;47.072;15.452;2023-07-22T10:00:34;24.70;68.70
2783;DHT22;1399;47.072;15.452;2023-07-22T10:03:02;24.70;68.40
2783;DHT22;1399;47.072;15.452;2023-07-22T10:05:34;24.70;68.30
2783;DHT22;1399;47.072;15.452;2023-07-22T10:08:02;24.80;68.00
2783;DHT22;1399;47.072;15.452;2023-07-22T10:10:33;24.80;67.70
2783;DHT22;1399;47.072;15.452;2023-07-22T10:13:00;24.80;67.50
2783;DHT22;1399;47.072;15.452;2023-07-22T10:15:29;24.90;67.50
2783;DHT22;1399;47.072;15.452;2023-07-22T10:17:56;24.90;67.90
2783;DHT22;1399;47.072;15.452;2023-07-22T10:20:22;25.00;67.50
2783;DHT22;1399;47.072;15.452;2023-07-22T10:22:49;25.00;67.60
2783;DHT22;1399;47.072;15.452;2023-07-22T10:25:17;25.00;67.30
2783;DHT22;1399;47.072;15.452;2023-07-22T10:27:44;25.00;67.20
2783;DHT22;1399;47.072;15.452;2023-07-22T10:30:11;25.00;66.90
2783;DHT22;1399;47.072;15.452;2023-07-22T10:32:45;25.00;67.00
2783;DHT22;1399;47.072;15.452;2023-07-22T10:35:16;25.00;66.90
2783;DHT22;1399;47.072;15.452;2023-07-22T10:37:45;25.10;66.40
2783;DHT22;1399;47.072;15.452;2023-07-22T10:42:53;25.20;66.00
2783;DHT22;1399;47.072;15.452;2023-07-22T10:45:27;25.20;67.40
2783;DHT22;1399;47.072;15.452;2023-07-22T10:48:26;25.20;65.80
2783;DHT22;1399;47.072;15.452;2023-07-22T10:50:57;25.20;65.40
2783;DHT22;1399;47.072;15.452;2023-07-22T10:56:11;25.20;64.50
2783;DHT22;1399;47.072;15.452;2023-07-22T11:06:31;25.40;63.40
2783;DHT22;1399;47.072;15.452;2023-07-22T11:08:57;25.50;63.20
2783;DHT22;1399;47.072;15.452;2023-07-22T11:11:40;25.50;62.70
2783;DHT22;1399;47.072;15.452;2023-07-22T11:14:21;25.50;62.10
2783;DHT22;1399;47.072;15.452;2023-07-22T11:16:47;25.60;62.40
2783;DHT22;1399;47.072;15.452;2023-07-22T11:19:15;25.60;61.60
2783;DHT22;1399;47.072;15.452;2023-07-22T11:21:42;25.60;61.90
2783;DHT22;1399;47.072;15.452;2023-07-22T11:24:08;25.60;62.00
2783;DHT22;1399;47.072;15.452;2023-07-22T11:26:35;25.70;62.90
2783;DHT22;1399;47.072;15.452;2023-07-22T11:29:02;25.60;62.30
2783;DHT22;1399;47.072;15.452;2023-07-22T11:31:32;25.60;61.80
2783;DHT22;1399;47.072;15.452;2023-07-22T11:33:58;25.60;61.50
2783;DHT22;1399;47.072;15.452;2023-07-22T11:36:25;25.60;61.50
2783;DHT22;1399;47.072;15.452;2023-07-22T11:38:52;25.60;62.90
2783;DHT22;1399;47.072;15.452;2023-07-22T11:41:18;25.60;62.90
2783;DHT22;1399;47.072;15.452;2023-07-22T11:43:44;25.60;62.50
2783;DHT22;1399;47.072;15.452;2023-07-22T11:46:09;25.60;62.40
2783;DHT22;1399;47.072;15.452;2023-07-22T11:48:35;25.60;62.10
2783;DHT22;1399;47.072;15.452;2023-07-22T11:51:01;25.70;62.20
2783;DHT22;1399;47.072;15.452;2023-07-22T11:53:27;25.70;62.00
2783;DHT22;1399;47.072;15.452;2023-07-22T11:55:56;25.60;61.80
2783;DHT22;1399;47.072;15.452;2023-07-22T11:58:28;25.70;62.20
2783;DHT22;1399;47.072;15.452;2023-07-22T12:01:05;25.70;62.90
2783;DHT22;1399;47.072;15.452;2023-07-22T12:03:35;25.70;63.10
2783;DHT22;1399;47.072;15.452;2023-07-22T12:06:02;25.70;63.30
2783;DHT22;1399;47.072;15.452;2023-07-22T12:08:28;25.70;63.30
2783;DHT22;1399;47.072;15.452;2023-07-22T12:11:00;25.70;63.10
2783;DHT22;1399;47.072;15.452;2023-07-22T12:13:26;25.70;63.60
2783;DHT22;1399;47.072;15.452;2023-07-22T12:16:02;25.70;63.60
2783;DHT22;1399;47.072;15.452;2023-07-22T12:18:28;25.70;63.80
2783;DHT22;1399;47.072;15.452;2023-07-22T12:21:06;25.70;63.20
2783;DHT22;1399;47.072;15.452;2023-07-22T12:23:32;25.80;63.00
2783;DHT22;1399;47.072;15.452;2023-07-22T12:25:58;25.80;62.60
2783;DHT22;1399;47.072;15.452;2023-07-22T12:28:23;25.80;62.80
2783;DHT22;1399;47.072;15.452;2023-07-22T12:30:49;25.70;62.80
2783;DHT22;1399;47.072;15.452;2023-07-22T12:33:15;25.70;62.80
2783;DHT22;1399;47.072;15.452;2023-07-22T12:35:41;25.70;62.80
2783;DHT22;1399;47.072;15.452;2023-07-22T12:38:06;25.70;62.90
2783;DHT22;1399;47.072;15.452;2023-07-22T12:40:32;25.70;62.90
2783;DHT22;1399;47.072;15.452;2023-07-22T12:42:58;25.70;62.70
2783;DHT22;1399;47.072;15.452;2023-07-22T12:45:24;25.70;62.50
2783;DHT22;1399;47.072;15.452;2023-07-22T12:47:49;25.70;62.50
2783;DHT22;1399;47.072;15.452;2023-07-22T12:50:15;25.80;62.30
2783;DHT22;1399;47.072;15.452;2023-07-22T12:52:41;25.80;62.10
2783;DHT22;1399;47.072;15.452;2023-07-22T12:55:07;25.80;62.30
2783;DHT22;1399;47.072;15.452;2023-07-22T12:57:33;25.80;62.30
2783;DHT22;1399;47.072;15.452;2023-07-22T12:59:58;25.80;62.40
2783;DHT22;1399;47.072;15.452;2023-07-22T13:02:24;25.80;62.00
2783;DHT22;1399;47.072;15.452;2023-07-22T13:04:51;25.80;61.80
2783;DHT22;1399;47.072;15.452;2023-07-22T13:07:17;25.90;61.70
2783;DHT22;1399;47.072;15.452;2023-07-22T13:09:43;25.90;61.80
2783;DHT22;1399;47.072;15.452;2023-07-22T13:12:11;25.90;61.80
2783;DHT22;1399;47.072;15.452;2023-07-22T13:14:37;25.90;61.80
2783;DHT22;1399;47.072;15.452;2023-07-22T13:17:03;25.80;61.90
2783;DHT22;1399;47.072;15.452;2023-07-22T13:19:29;25.70;61.90
2783;DHT22;1399;47.072;15.452;2023-07-22T13:21:54;25.70;62.20
2783;DHT22;1399;47.072;15.452;2023-07-22T13:24:21;25.70;62.60
2783;DHT22;1399;47.072;15.452;2023-07-22T13:26:47;25.60;62.80
2783;DHT22;1399;47.072;15.452;2023-07-22T13:29:12;25.60;63.00
2783;DHT22;1399;47.072;15.452;2023-07-22T13:31:39;25.50;63.10
2783;DHT22;1399;47.072;15.452;2023-07-22T13:34:04;25.50;63.40
2783;DHT22;1399;47.072;15.452;2023-07-22T13:36:30;25.40;63.70
2783;DHT22;1399;47.072;15.452;2023-07-22T13:38:56;25.40;64.00
2783;DHT22;1399;47.072;15.452;2023-07-22T13:41:22;25.30;64.20
2783;DHT22;1399;47.072;15.452;2023-07-22T13:43:47;25.30;64.50
2783;DHT22;1399;47.072;15.452;2023-07-22T13:46:13;25.30;64.60
2783;DHT22;1399;47.072;15.452;2023-07-22T13:48:39;25.30;64.80
2783;DHT22;1399;47.072;15.452;2023-07-22T13:51:05;25.30;64.90
2783;DHT22;1399;47.072;15.452;2023-07-22T13:53:30;25.30;65.00
2783;DHT22;1399;47.072;15.452;2023-07-22T13:55:56;25.30;65.10
2783;DHT22;1399;47.072;15.452;2023-07-22T13:58:22;25.30;65.20
2783;DHT22;1399;47.072;15.452;2023-07-22T14:00:48;25.30;65.30
2783;DHT22;1399;47.072;15.452;2023-07-22T14:03:14;25.30;65.30
2783;DHT22;1399;47.072;15.452;2023-07-22T14:05:40;25.30;65.50
2783;DHT22;1399;47.072;15.452;2023-07-22T14:08:06;25.30;65.60
2783;DHT22;1399;47.072;15.452;2023-07-22T14:10:31;25.20;65.70
2783;DHT22;1399;47.072;15.452;2023-07-22T14:12:57;25.20;65.80
2783;DHT22;1399;47.072;15.452;2023-07-22T14:15:23;25.20;66.00
2783;DHT22;1399;47.072;15.452;2023-07-22T14:17:49;25.10;66.20
2783;DHT22;1399;47.072;15.452;2023-07-22T14:20:15;25.10;66.40
2783;DHT22;1399;47.072;15.452;2023-07-22T14:22:42;25.00;66.60
2783;DHT22;1399;47.072;15.452;2023-07-22T14:25:08;25.00;66.90
2783;DHT22;1399;47.072;15.452;2023-07-22T14:27:34;24.90;67.10
2783;DHT22;1399;47.072;15.452;2023-07-22T14:30:01;24.90;68.20
2783;DHT22;1399;47.072;15.452;2023-07-22T14:32:29;24.80;67.40
2783;DHT22;1399;47.072;15.452;2023-07-22T14:34:56;24.80;67.70
2783;DHT22;1399;47.072;15.452;2023-07-22T14:37:22;24.70;67.90
2783;DHT22;1399;47.072;15.452;2023-07-22T14:39:48;24.60;68.00
2783;DHT22;1399;47.072;15.452;2023-07-22T14:42:14;24.60;68.30
2783;DHT22;1399;47.072;15.452;2023-07-22T14:44:40;24.50;68.40
2783;DHT22;1399;47.072;15.452;2023-07-22T14:47:06;24.50;68.70
2783;DHT22;1399;47.072;15.452;2023-07-22T14:49:32;24.40;68.80
2783;DHT22;1399;47.072;15.452;2023-07-22T14:51:58;24.30;68.80
2783;DHT22;1399;47.072;15.452;2023-07-22T14:54:24;24.30;69.10
2783;DHT22;1399;47.072;15.452;2023-07-22T14:56:50;24.20;69.20
2783;DHT22;1399;47.072;15.452;2023-07-22T14:59:16;24.20;69.40
2783;DHT22;1399;47.072;15.452;2023-07-22T15:01:42;24.20;69.50
2783;DHT22;1399;47.072;15.452;2023-07-22T15:04:09;24.10;69.60
2783;DHT22;1399;47.072;15.452;2023-07-22T15:06:35;24.10;69.70
2783;DHT22;1399;47.072;15.452;2023-07-22T15:09:02;24.00;69.70
2783;DHT22;1399;47.072;15.452;2023-07-22T15:11:35;24.00;69.70
2783;DHT22;1399;47.072;15.452;2023-07-22T15:14:02;23.90;69.60
2783;DHT22;1399;47.072;15.452;2023-07-22T15:16:28;23.90;69.50
2783;DHT22;1399;47.072;15.452;2023-07-22T15:18:53;23.90;69.50
2783;DHT22;1399;47.072;15.452;2023-07-22T15:21:19;23.80;69.40
2783;DHT22;1399;47.072;15.452;2023-07-22T15:23:45;23.80;69.40
2783;DHT22;1399;47.072;15.452;2023-07-22T15:26:10;23.70;69.70
2783;DHT22;1399;47.072;15.452;2023-07-22T15:28:36;23.70;70.20
2783;DHT22;1399;47.072;15.452;2023-07-22T15:31:02;23.70;70.80
2783;DHT22;1399;47.072;15.452;2023-07-22T15:33:28;23.60;71.50
2783;DHT22;1399;47.072;15.452;2023-07-22T15:35:53;23.60;72.40
2783;DHT22;1399;47.072;15.452;2023-07-22T15:38:21;23.50;73.10
2783;DHT22;1399;47.072;15.452;2023-07-22T15:40:47;23.50;74.00
2783;DHT22;1399;47.072;15.452;2023-07-22T15:43:13;23.40;74.70
2783;DHT22;1399;47.072;15.452;2023-07-22T15:45:39;23.40;75.40
2783;DHT22;1399;47.072;15.452;2023-07-22T15:48:05;23.30;75.90
2783;DHT22;1399;47.072;15.452;2023-07-22T15:50:32;23.30;76.40
2783;DHT22;1399;47.072;15.452;2023-07-22T15:52:58;23.30;76.70
2783;DHT22;1399;47.072;15.452;2023-07-22T15:55:24;23.30;77.00
2783;DHT22;1399;47.072;15.452;2023-07-22T15:57:50;23.30;77.00